Time;durP1;ratioP1;P1;durP2;ratioP2;P2;SDS_P1;SDS_P2;PMS_P1;PMS_P2;Temp;Humidity;BMP_temperature;BMP_pressure;BME280_temperature;BME280_humidity;BME280_pressure;Samples;Min_cycle;Max_cycle;Signal;HPM_P1;HPM_P2
2023/03/16 00:02:00;;;;;;;4.13;2.65;;;;;;;;;;4905157;29;20183;-89
2023/03/16 00:04:26;;;;;;;2.75;2.30;;;;;;;;;;4922167;29;20186;-88
2023/03/16 00:06:52;;;;;;;3.58;2.33;;;;;;;;;;4921658;29;20195;-87
2023/03/16 00:09:18;;;;;;;4.60;2.53;;;;;;;;;;4921788;29;20220;-88
2023/03/16 00:11:44;;;;;;;3.00;2.35;;;;;;;;;;4905263;29;20200;-88
2023/03/16 00:14:10;;;;;;;3.58;2.97;;;;;;;;;;4920992;29;20629;-88
2023/03/16 00:16:36;;;;;;;5.57;2.07;;;;;;;;;;4904828;29;20187;-89
2023/03/16 00:19:04;;;;;;;2.77;2.00;;;;;;;;;;4904872;29;20919;-88
2023/03/16 00:21:31;;;;;;;4.47;2.95;;;;;;;;;;4921796;29;20409;-89
2023/03/16 00:24:02;;;;;;;9.02;2.65;;;;;;;;;;4904186;29;20187;-88
2023/03/16 00:26:28;;;;;;;4.85;3.10;;;;;;;;;;4921769;29;20189;-89
2023/03/16 00:28:54;;;;;;;3.40;2.75;;;;;;;;;;4921126;29;20228;-88
2023/03/16 00:31:23;;;;;;;2.90;2.20;;;;;;;;;;4921323;29;20193;-88
2023/03/16 00:33:49;;;;;;;3.05;2.40;;;;;;;;;;4922760;29;20409;-88
2023/03/16 00:36:16;;;;;;;4.40;2.25;;;;;;;;;;4920736;29;20244;-89
2023/03/16 00:38:47;;;;;;;2.42;2.10;;;;;;;;;;4921481;29;20192;-88
2023/03/16 00:41:14;;;;;;;4.72;2.35;;;;;;;;;;4921200;29;20182;-89
2023/03/16 00:43:40;;;;;;;3.95;2.08;;;;;;;;;;4920952;29;20185;-89
2023/03/16 00:46:10;;;;;;;2.97;2.45;;;;;;;;;;4920582;29;20581;-88
2023/03/16 00:48:37;;;;;;;2.53;1.85;;;;;;;;;;4921306;29;20185;-88
2023/03/16 00:51:05;;;;;;;3.22;2.33;;;;;;;;;;4921061;29;20283;-89
2023/03/16 00:53:35;;;;;;;2.40;2.20;;;;;;;;;;4904588;29;20654;-89
2023/03/16 00:56:04;;;;;;;4.10;2.05;;;;;;;;;;4920596;29;20196;-89
2023/03/16 00:58:34;;;;;;;2.42;2.00;;;;;;;;;;4921053;29;20186;-87
2023/03/16 01:01:12;;;;;;;2.17;1.75;;;;;;;;;;4921057;29;20256;-88
2023/03/16 01:03:38;;;;;;;2.70;2.17;;;;;;;;;;4920895;29;20566;-89
2023/03/16 01:06:05;;;;;;;6.73;2.13;;;;;;;;;;4903696;29;20199;-89
2023/03/16 01:08:32;;;;;;;3.83;2.45;;;;;;;;;;4903315;29;20509;-89
2023/03/16 01:11:02;;;;;;;4.32;2.55;;;;;;;;;;4919639;29;20256;-87
2023/03/16 01:13:28;;;;;;;2.97;1.75;;;;;;;;;;4903906;29;20192;-89
2023/03/16 01:15:54;;;;;;;2.90;2.15;;;;;;;;;;4920988;29;20173;-89
2023/03/16 01:18:21;;;;;;;2.93;2.17;;;;;;;;;;4904680;29;20241;-88
2023/03/16 01:20:49;;;;;;;4.32;2.13;;;;;;;;;;4904148;29;20516;-89
2023/03/16 01:23:19;;;;;;;3.42;2.10;;;;;;;;;;4925749;29;20483;-89
2023/03/16 01:25:52;;;;;;;3.45;2.00;;;;;;;;;;4929013;29;20234;-88
2023/03/16 01:28:23;;;;;;;8.02;3.25;;;;;;;;;;4928071;29;20169;-88
2023/03/16 01:30:52;;;;;;;3.15;2.20;;;;;;;;;;4910148;29;20216;-89
2023/03/16 01:33:18;;;;;;;3.13;2.72;;;;;;;;;;4927503;29;20173;-88
2023/03/16 01:35:51;;;;;;;4.80;2.20;;;;;;;;;;4926178;29;20637;-89
2023/03/16 01:38:17;;;;;;;2.33;1.92;;;;;;;;;;4920558;29;20245;-89
2023/03/16 01:40:43;;;;;;;2.95;2.20;;;;;;;;;;4920450;29;20188;-89
2023/03/16 01:43:11;;;;;;;3.80;2.13;;;;;;;;;;4919903;29;20181;-89
2023/03/16 01:45:55;;;;;;;2.90;1.85;;;;;;;;;;4920236;29;20441;-89
2023/03/16 01:48:24;;;;;;;2.30;2.10;;;;;;;;;;4919940;29;20181;-89
2023/03/16 01:50:51;;;;;;;3.70;2.35;;;;;;;;;;4919752;29;20237;-88
2023/03/16 01:53:17;;;;;;;2.80;2.45;;;;;;;;;;4920129;29;20197;-89
2023/03/16 01:55:43;;;;;;;6.30;2.03;;;;;;;;;;4903171;29;20220;-89
2023/03/16 01:58:10;;;;;;;2.75;2.55;;;;;;;;;;4902681;29;20221;-89
2023/03/16 02:00:37;;;;;;;3.83;2.15;;;;;;;;;;4903725;29;20237;-89
2023/03/16 02:03:17;;;;;;;2.40;2.20;;;;;;;;;;4903409;29;20579;-88
2023/03/16 02:05:54;;;;;;;2.97;2.28;;;;;;;;;;4903282;29;20579;-89
2023/03/16 02:08:21;;;;;;;5.55;2.33;;;;;;;;;;4919752;29;20266;-88
2023/03/16 02:10:48;;;;;;;3.28;2.13;;;;;;;;;;4902306;29;20251;-88
2023/03/16 02:13:14;;;;;;;2.40;2.20;;;;;;;;;;4919050;29;20188;-88
2023/03/16 02:15:40;;;;;;;2.60;1.75;;;;;;;;;;4919769;29;20178;-88
2023/03/16 02:18:07;;;;;;;3.90;1.85;;;;;;;;;;4902172;29;20549;-88
2023/03/16 02:20:43;;;;;;;2.25;1.92;;;;;;;;;;4919883;29;20182;-88
2023/03/16 02:23:17;;;;;;;6.30;2.10;;;;;;;;;;4919468;29;20262;-88
2023/03/16 02:25:50;;;;;;;3.20;2.00;;;;;;;;;;4919525;29;20172;-89
2023/03/16 02:28:27;;;;;;;3.88;1.50;;;;;;;;;;4902021;29;20182;-89
2023/03/16 02:30:53;;;;;;;3.28;2.25;;;;;;;;;;4902412;29;20217;-89
2023/03/16 02:33:20;;;;;;;2.47;1.90;;;;;;;;;;4919157;29;20189;-88
2023/03/16 02:35:46;;;;;;;4.65;2.25;;;;;;;;;;4919159;29;20308;-88
2023/03/16 02:38:12;;;;;;;2.55;1.70;;;;;;;;;;4918513;29;20245;-89
2023/03/16 02:40:41;;;;;;;2.75;1.63;;;;;;;;;;4918703;29;20264;-88
2023/03/16 02:43:18;;;;;;;6.07;2.10;;;;;;;;;;4901486;29;20189;-88
2023/03/16 02:45:46;;;;;;;2.45;2.25;;;;;;;;;;4918854;29;20256;-88
2023/03/16 02:48:16;;;;;;;2.97;1.90;;;;;;;;;;4918589;29;20183;-88
2023/03/16 02:50:45;;;;;;;1.83;1.63;;;;;;;;;;4919258;29;20220;-88
2023/03/16 02:53:12;;;;;;;3.25;2.20;;;;;;;;;;4919494;29;20225;-89
2023/03/16 02:55:38;;;;;;;3.25;2.65;;;;;;;;;;4918903;29;20200;-89
2023/03/16 02:58:04;;;;;;;4.40;1.73;;;;;;;;;;4886539;29;20248;-88
2023/03/16 03:00:31;;;;;;;3.40;2.20;;;;;;;;;;4902532;29;20417;-89
2023/03/16 03:02:57;;;;;;;6.45;2.60;;;;;;;;;;4918464;29;20944;-89
2023/03/16 03:05:23;;;;;;;3.17;2.20;;;;;;;;;;4901734;29;20193;-89
2023/03/16 03:07:49;;;;;;;2.65;1.90;;;;;;;;;;4919080;29;20265;-89
2023/03/16 03:10:15;;;;;;;3.30;2.67;;;;;;;;;;4901835;29;20266;-88
2023/03/16 03:12:41;;;;;;;1.70;1.60;;;;;;;;;;4919001;29;20605;-89
2023/03/16 03:15:07;;;;;;;3.03;2.30;;;;;;;;;;4918349;29;20299;-88
2023/03/16 03:17:36;;;;;;;2.30;2.10;;;;;;;;;;4918751;29;20188;-88
2023/03/16 03:20:06;;;;;;;2.10;1.90;;;;;;;;;;4901389;29;20544;-88
2023/03/16 03:22:32;;;;;;;3.17;2.03;;;;;;;;;;4918689;29;20270;-88
2023/03/16 03:24:58;;;;;;;2.80;2.33;;;;;;;;;;4904744;29;20256;-88
2023/03/16 03:27:24;;;;;;;4.33;2.20;;;;;;;;;;4905650;29;20202;-89
2023/03/16 03:29:51;;;;;;;2.95;2.10;;;;;;;;;;4905487;29;20480;-88
2023/03/16 03:32:17;;;;;;;2.10;1.90;;;;;;;;;;4906099;29;20243;-88
2023/03/16 03:34:43;;;;;;;3.33;2.00;;;;;;;;;;4923843;29;20544;-88
2023/03/16 03:37:09;;;;;;;3.17;2.15;;;;;;;;;;4909106;29;20512;-88
2023/03/16 03:39:35;;;;;;;2.33;2.13;;;;;;;;;;4924618;29;20189;-88
2023/03/16 03:42:01;;;;;;;3.63;2.40;;;;;;;;;;4924397;29;20410;-88
2023/03/16 03:44:27;;;;;;;2.90;2.30;;;;;;;;;;4907186;29;20189;-89
2023/03/16 03:46:53;;;;;;;4.20;2.38;;;;;;;;;;4922804;29;20649;-89
2023/03/16 03:49:19;;;;;;;6.53;2.40;;;;;;;;;;4922553;29;20189;-89
2023/03/16 03:51:45;;;;;;;2.15;1.67;;;;;;;;;;4923010;29;20470;-89
2023/03/16 03:54:11;;;;;;;1.95;1.80;;;;;;;;;;4906004;29;20177;-89
2023/03/16 03:56:37;;;;;;;3.77;2.47;;;;;;;;;;4921820;29;20191;-89
2023/03/16 03:59:03;;;;;;;4.30;2.67;;;;;;;;;;4906074;29;20418;-89
2023/03/16 04:01:29;;;;;;;7.00;2.37;;;;;;;;;;4922484;29;20445;-89
2023/03/16 04:03:55;;;;;;;3.43;2.47;;;;;;;;;;4905218;29;20505;-88
2023/03/16 04:06:21;;;;;;;7.77;2.60;;;;;;;;;;4921440;29;20432;-89
2023/03/16 04:08:48;;;;;;;4.67;2.40;;;;;;;;;;4889973;29;20509;-89
2023/03/16 04:11:14;;;;;;;2.45;2.25;;;;;;;;;;4889223;29;20469;-89
2023/03/16 04:13:40;;;;;;;6.80;2.53;;;;;;;;;;4921904;29;20189;-89
2023/03/16 04:16:06;;;;;;;6.45;2.40;;;;;;;;;;4905031;29;20190;-88
2023/03/16 04:18:37;;;;;;;2.42;2.20;;;;;;;;;;4921212;29;20192;-89
2023/03/16 04:21:04;;;;;;;3.88;2.40;;;;;;;;;;4904586;29;20683;-89
2023/03/16 04:23:32;;;;;;;4.05;2.47;;;;;;;;;;4921206;29;20185;-89
2023/03/16 04:25:58;;;;;;;6.32;3.10;;;;;;;;;;4921971;29;20676;-89
2023/03/16 04:28:25;;;;;;;4.50;2.63;;;;;;;;;;4889702;29;20284;-90
2023/03/16 04:30:55;;;;;;;5.70;2.88;;;;;;;;;;4905110;29;20215;-89
2023/03/16 04:33:21;;;;;;;3.20;2.42;;;;;;;;;;4920594;29;20185;-89
2023/03/16 04:35:47;;;;;;;2.97;1.90;;;;;;;;;;4920876;29;20273;-89
2023/03/16 04:38:13;;;;;;;4.30;2.40;;;;;;;;;;4920676;29;20186;-89
2023/03/16 04:40:40;;;;;;;3.75;2.42;;;;;;;;;;4921030;29;20182;-89
2023/03/16 04:43:06;;;;;;;3.70;2.63;;;;;;;;;;4921353;29;20300;-89
2023/03/16 04:45:32;;;;;;;2.85;2.55;;;;;;;;;;4920538;29;20188;-89
2023/03/16 04:47:58;;;;;;;7.07;2.70;;;;;;;;;;4920815;29;20178;-89
2023/03/16 04:50:24;;;;;;;3.22;2.80;;;;;;;;;;4920587;29;20533;-89
2023/03/16 04:52:50;;;;;;;7.13;2.65;;;;;;;;;;4920739;29;20193;-90
2023/03/16 04:55:16;;;;;;;4.10;2.53;;;;;;;;;;4888650;29;20195;-89
2023/03/16 04:57:42;;;;;;;4.35;2.30;;;;;;;;;;4922145;29;20185;-89
2023/03/16 05:00:10;;;;;;;2.80;2.37;;;;;;;;;;4903935;29;20213;-89
2023/03/16 05:02:36;;;;;;;2.50;2.30;;;;;;;;;;4924724;29;20410;-89
2023/03/16 05:05:03;;;;;;;3.60;2.15;;;;;;;;;;4926300;29;20189;-89
2023/03/16 05:07:30;;;;;;;2.78;2.58;;;;;;;;;;4905882;29;20297;-89
2023/03/16 05:09:56;;;;;;;3.83;2.42;;;;;;;;;;4921565;29;20199;-90
2023/03/16 05:12:22;;;;;;;5.13;2.77;;;;;;;;;;4921084;29;20182;-90
2023/03/16 05:14:48;;;;;;;3.60;2.70;;;;;;;;;;4921055;29;20447;-89
2023/03/16 05:17:14;;;;;;;3.60;2.03;;;;;;;;;;4921028;29;20533;-90
2023/03/16 05:19:41;;;;;;;3.27;2.50;;;;;;;;;;4904011;29;20430;-90
2023/03/16 05:22:07;;;;;;;5.20;3.20;;;;;;;;;;4921117;29;20584;-89
2023/03/16 05:24:33;;;;;;;3.70;2.88;;;;;;;;;;4920760;29;20542;-89
2023/03/16 05:27:02;;;;;;;3.63;3.20;;;;;;;;;;4920820;29;20187;-89
2023/03/16 05:29:30;;;;;;;4.93;3.25;;;;;;;;;;4919783;29;20294;-89
2023/03/16 05:31:56;;;;;;;4.70;3.35;;;;;;;;;;4920376;29;20246;-90
2023/03/16 05:34:22;;;;;;;6.05;2.95;;;;;;;;;;4919918;29;20177;-89
2023/03/16 05:36:48;;;;;;;3.42;2.95;;;;;;;;;;4920694;29;20237;-89
2023/03/16 05:39:14;;;;;;;3.70;3.00;;;;;;;;;;4919993;29;20185;-89
2023/03/16 05:41:40;;;;;;;4.00;3.40;;;;;;;;;;4888342;29;20247;-88
2023/03/16 05:44:06;;;;;;;8.00;3.47;;;;;;;;;;4920502;29;20537;-88
2023/03/16 05:46:33;;;;;;;3.38;3.00;;;;;;;;;;4920125;29;20185;-89
2023/03/16 05:48:59;;;;;;;6.32;3.88;;;;;;;;;;4920313;29;20201;-89
2023/03/16 05:51:25;;;;;;;3.80;3.35;;;;;;;;;;4919916;29;20220;-89
2023/03/16 05:53:55;;;;;;;4.25;3.38;;;;;;;;;;4902874;29;20217;-89
2023/03/16 05:56:21;;;;;;;3.95;3.55;;;;;;;;;;4920581;29;20533;-89
2023/03/16 05:58:47;;;;;;;4.57;3.30;;;;;;;;;;4919545;29;20196;-89
2023/03/16 06:01:14;;;;;;;6.37;4.20;;;;;;;;;;4912354;29;20418;-85
2023/03/16 06:03:40;;;;;;;5.00;3.60;;;;;;;;;;4903829;29;20418;-89
2023/03/16 06:06:06;;;;;;;6.20;3.70;;;;;;;;;;4901340;29;20187;-89
2023/03/16 06:08:32;;;;;;;6.65;4.13;;;;;;;;;;4901150;29;20183;-89
2023/03/16 06:10:58;;;;;;;3.93;3.43;;;;;;;;;;4901300;29;20238;-89
2023/03/16 06:13:24;;;;;;;5.37;3.70;;;;;;;;;;4900278;29;20414;-89
2023/03/16 06:15:50;;;;;;;4.67;3.53;;;;;;;;;;4901089;29;20506;-89
2023/03/16 06:18:16;;;;;;;7.23;3.67;;;;;;;;;;4900340;29;20910;-88
2023/03/16 06:20:42;;;;;;;7.17;4.10;;;;;;;;;;4900898;29;20970;-89
2023/03/16 06:23:08;;;;;;;4.40;3.50;;;;;;;;;;4883959;29;20434;-89
2023/03/16 06:25:34;;;;;;;7.00;4.17;;;;;;;;;;4900426;29;20438;-89
2023/03/16 06:28:00;;;;;;;4.83;3.50;;;;;;;;;;4884086;29;20436;-89
2023/03/16 06:30:26;;;;;;;7.15;4.57;;;;;;;;;;4884821;29;20502;-88
2023/03/16 06:32:52;;;;;;;7.30;3.90;;;;;;;;;;4900926;29;20183;-89
2023/03/16 06:35:18;;;;;;;3.70;3.40;;;;;;;;;;4899924;29;20227;-88
2023/03/16 06:37:44;;;;;;;4.72;4.00;;;;;;;;;;4900671;29;20475;-88
2023/03/16 06:40:11;;;;;;;4.80;4.00;;;;;;;;;;4883698;29;20187;-88
2023/03/16 06:42:37;;;;;;;5.97;3.85;;;;;;;;;;4883135;29;20427;-88
2023/03/16 06:45:03;;;;;;;4.37;3.97;;;;;;;;;;4899976;29;20708;-88
2023/03/16 06:47:29;;;;;;;5.60;3.45;;;;;;;;;;4882833;29;20434;-89
2023/03/16 06:49:55;;;;;;;5.38;4.18;;;;;;;;;;4900116;29;20215;-89
2023/03/16 06:52:21;;;;;;;4.20;3.60;;;;;;;;;;4899613;29;20185;-88
2023/03/16 06:54:47;;;;;;;6.85;4.32;;;;;;;;;;4900384;29;20646;-88
2023/03/16 06:57:13;;;;;;;4.88;3.80;;;;;;;;;;4882866;29;20186;-89
2023/03/16 06:59:39;;;;;;;5.20;3.83;;;;;;;;;;4899694;29;20597;-89
2023/03/16 07:02:05;;;;;;;5.07;3.97;;;;;;;;;;4900209;29;20510;-89
2023/03/16 07:04:32;;;;;;;5.15;4.65;;;;;;;;;;4899580;29;20519;-89
2023/03/16 07:06:59;;;;;;;8.05;4.40;;;;;;;;;;4910250;29;20182;-89
2023/03/16 07:09:24;;;;;;;6.35;4.53;;;;;;;;;;4899487;29;20234;-89
2023/03/16 07:11:51;;;;;;;4.80;3.47;;;;;;;;;;4900057;29;20652;-88
2023/03/16 07:14:18;;;;;;;5.60;4.13;;;;;;;;;;4882959;29;20782;-85
2023/03/16 07:16:44;;;;;;;4.75;3.95;;;;;;;;;;4883149;29;20545;-89
2023/03/16 07:19:10;;;;;;;5.20;3.90;;;;;;;;;;4883056;29;20183;-88
2023/03/16 07:21:40;;;;;;;5.90;4.53;;;;;;;;;;4899902;29;20356;-88
2023/03/16 07:24:07;;;;;;;6.90;5.00;;;;;;;;;;4882514;29;20420;-89
2023/03/16 07:26:33;;;;;;;6.93;4.05;;;;;;;;;;4867159;29;20187;-88
2023/03/16 07:28:59;;;;;;;5.27;4.27;;;;;;;;;;4899892;29;20650;-86
2023/03/16 07:31:25;;;;;;;6.00;4.15;;;;;;;;;;4885774;29;20565;-87
2023/03/16 07:33:51;;;;;;;4.78;4.00;;;;;;;;;;4902585;29;20194;-88
2023/03/16 07:36:17;;;;;;;9.20;4.70;;;;;;;;;;4870636;29;20243;-88
2023/03/16 07:38:43;;;;;;;4.80;4.15;;;;;;;;;;4897233;29;20454;-88
2023/03/16 07:41:09;;;;;;;4.32;3.67;;;;;;;;;;4885861;29;20277;-81
2023/03/16 07:43:35;;;;;;;9.13;5.17;;;;;;;;;;4883427;29;20214;-81
2023/03/16 07:46:02;;;;;;;8.07;4.85;;;;;;;;;;4900261;29;20414;-81
2023/03/16 07:48:28;;;;;;;5.70;4.28;;;;;;;;;;4883428;29;20628;-82
2023/03/16 07:50:53;;;;;;;5.53;4.80;;;;;;;;;;4884195;29;20209;-81
2023/03/16 07:53:19;;;;;;;6.07;5.00;;;;;;;;;;4899811;29;20242;-85
2023/03/16 07:55:46;;;;;;;6.43;4.13;;;;;;;;;;4882809;29;20411;-82
2023/03/16 07:58:12;;;;;;;5.78;4.63;;;;;;;;;;4882877;29;20182;-81
2023/03/16 08:00:38;;;;;;;4.38;3.42;;;;;;;;;;4899811;29;20527;-82
2023/03/16 08:03:04;;;;;;;3.63;3.10;;;;;;;;;;4899508;29;20179;-82
2023/03/16 08:05:34;;;;;;;4.17;3.20;;;;;;;;;;4899699;29;20190;-82
2023/03/16 08:08:00;;;;;;;4.00;3.33;;;;;;;;;;4899809;29;20494;-82
2023/03/16 08:10:26;;;;;;;6.20;4.00;;;;;;;;;;4901653;29;20195;-83
2023/03/16 08:12:53;;;;;;;3.30;3.00;;;;;;;;;;4903141;29;20185;-82
2023/03/16 08:15:20;;;;;;;5.53;3.22;;;;;;;;;;4886414;29;20250;-82
2023/03/16 08:17:46;;;;;;;7.53;5.05;;;;;;;;;;4902977;29;20271;-82
2023/03/16 08:20:14;;;;;;;4.47;3.75;;;;;;;;;;4903014;29;20510;-83
2023/03/16 08:22:40;;;;;;;5.05;4.20;;;;;;;;;;4885801;29;20194;-82
2023/03/16 08:25:11;;;;;;;6.55;3.70;;;;;;;;;;4886010;29;20185;-82
2023/03/16 08:27:37;;;;;;;4.68;3.80;;;;;;;;;;4885507;29;20241;-82
2023/03/16 08:30:10;;;;;;;3.67;3.05;;;;;;;;;;4885906;29;20678;-83
2023/03/16 08:32:36;;;;;;;6.82;3.50;;;;;;;;;;4906971;29;20185;-82
2023/03/16 08:35:02;;;;;;;4.60;3.45;;;;;;;;;;4904611;29;20189;-82
2023/03/16 08:37:28;;;;;;;5.93;5.00;;;;;;;;;;4920807;29;20317;-83
2023/03/16 08:39:54;;;;;;;3.72;3.20;;;;;;;;;;4904141;29;20217;-83
2023/03/16 08:42:21;;;;;;;5.30;3.90;;;;;;;;;;4921161;29;20178;-83
2023/03/16 08:44:47;;;;;;;6.93;3.92;;;;;;;;;;4904222;29;20518;-85
2023/03/16 08:47:13;;;;;;;4.72;3.25;;;;;;;;;;4921124;29;20201;-83
2023/03/16 08:49:40;;;;;;;3.58;3.20;;;;;;;;;;4920644;29;20209;-82
2023/03/16 08:52:09;;;;;;;4.22;3.65;;;;;;;;;;4904638;29;20235;-83
2023/03/16 08:54:36;;;;;;;4.32;3.38;;;;;;;;;;4903923;29;20182;-82
2023/03/16 08:57:02;;;;;;;4.50;3.40;;;;;;;;;;4887610;29;20210;-83
2023/03/16 08:59:28;;;;;;;5.03;3.13;;;;;;;;;;4920348;29;20230;-82
2023/03/16 09:01:54;;;;;;;3.75;3.45;;;;;;;;;;4903372;29;20674;-83
2023/03/16 09:04:20;;;;;;;4.25;3.00;;;;;;;;;;4895243;29;20539;-81
2023/03/16 09:06:47;;;;;;;5.43;3.10;;;;;;;;;;4884688;29;20179;-83
2023/03/16 09:09:14;;;;;;;7.78;3.60;;;;;;;;;;4885322;29;20179;-82
2023/03/16 09:11:41;;;;;;;4.05;3.17;;;;;;;;;;4885491;29;20183;-82
2023/03/16 09:14:07;;;;;;;2.80;2.60;;;;;;;;;;4885495;29;20179;-82
2023/03/16 09:16:33;;;;;;;2.97;2.47;;;;;;;;;;4884297;29;20702;-83
2023/03/16 09:19:00;;;;;;;3.40;2.78;;;;;;;;;;4901576;29;20534;-83
2023/03/16 09:21:27;;;;;;;5.13;2.92;;;;;;;;;;4883484;29;20552;-84
2023/03/16 09:23:53;;;;;;;2.97;2.67;;;;;;;;;;4901788;29;20206;-82
2023/03/16 09:26:19;;;;;;;4.25;2.97;;;;;;;;;;4885208;29;20193;-83
2023/03/16 09:28:45;;;;;;;5.75;3.40;;;;;;;;;;4901267;29;20179;-83
2023/03/16 09:31:19;;;;;;;6.95;4.38;;;;;;;;;;4901535;29;20675;-83
2023/03/16 09:33:46;;;;;;;5.35;3.65;;;;;;;;;;4884513;29;20193;-82
2023/03/16 09:36:12;;;;;;;6.18;2.55;;;;;;;;;;4900884;29;20231;-83
2023/03/16 09:38:38;;;;;;;3.42;2.72;;;;;;;;;;4884311;29;20210;-82
2023/03/16 09:41:07;;;;;;;4.53;3.25;;;;;;;;;;4900488;29;20187;-82
2023/03/16 09:43:42;;;;;;;4.43;3.40;;;;;;;;;;4884305;29;20648;-84
2023/03/16 09:46:11;;;;;;;4.95;2.95;;;;;;;;;;4884558;29;20193;-82
2023/03/16 09:48:38;;;;;;;4.35;3.03;;;;;;;;;;4883911;29;20285;-83
2023/03/16 09:51:06;;;;;;;7.07;2.80;;;;;;;;;;4883937;29;20199;-82
2023/03/16 09:53:38;;;;;;;4.70;3.58;;;;;;;;;;4901359;29;20183;-83
2023/03/16 09:56:07;;;;;;;3.55;2.92;;;;;;;;;;4900483;29;20179;-83
2023/03/16 09:58:33;;;;;;;4.47;2.78;;;;;;;;;;4883909;29;20553;-83
2023/03/16 10:01:03;;;;;;;4.45;2.60;;;;;;;;;;4901009;29;20293;-83
2023/03/16 10:03:29;;;;;;;4.97;3.45;;;;;;;;;;4900602;29;20538;-83
2023/03/16 10:05:59;;;;;;;3.03;2.73;;;;;;;;;;4900721;29;20230;-82
2023/03/16 10:08:27;;;;;;;4.55;2.83;;;;;;;;;;4883922;29;20419;-83
2023/03/16 10:10:54;;;;;;;3.00;2.70;;;;;;;;;;4900589;29;20561;-83
2023/03/16 10:13:28;;;;;;;6.30;3.33;;;;;;;;;;4883765;29;20190;-83
2023/03/16 10:15:55;;;;;;;4.30;3.65;;;;;;;;;;4900649;29;20172;-83
2023/03/16 10:18:26;;;;;;;4.50;3.50;;;;;;;;;;4900918;29;20171;-83
2023/03/16 10:20:54;;;;;;;4.55;2.90;;;;;;;;;;4900733;29;20179;-83
2023/03/16 10:23:23;;;;;;;3.20;2.90;;;;;;;;;;4900520;29;20167;-82
2023/03/16 10:25:50;;;;;;;6.88;3.50;;;;;;;;;;4883348;29;20190;-83
2023/03/16 10:28:18;;;;;;;4.55;2.67;;;;;;;;;;4900251;29;20361;-83
2023/03/16 10:30:44;;;;;;;2.30;2.10;;;;;;;;;;4900743;29;20238;-83
2023/03/16 10:33:27;;;;;;;3.50;2.90;;;;;;;;;;4900012;29;20230;-83
2023/03/16 10:35:57;;;;;;;4.82;3.38;;;;;;;;;;4899518;29;20755;-80
2023/03/16 10:38:37;;;;;;;5.80;3.47;;;;;;;;;;4900401;29;20175;-81
2023/03/16 10:41:03;;;;;;;3.25;2.35;;;;;;;;;;4883285;29;20186;-80
2023/03/16 10:43:31;;;;;;;3.38;2.28;;;;;;;;;;4883140;29;20193;-85
2023/03/16 10:46:03;;;;;;;3.72;2.17;;;;;;;;;;4900140;29;20316;-81
2023/03/16 10:48:33;;;;;;;2.72;2.45;;;;;;;;;;4883453;29;20183;-81
2023/03/16 10:51:00;;;;;;;2.45;2.10;;;;;;;;;;4883010;29;20210;-82
2023/03/16 10:53:28;;;;;;;2.60;2.40;;;;;;;;;;4882263;29;20663;-81
2023/03/16 10:55:59;;;;;;;2.80;1.77;;;;;;;;;;4900042;29;20411;-81
2023/03/16 10:58:32;;;;;;;3.63;2.67;;;;;;;;;;4894513;29;20430;-82
2023/03/16 11:00:59;;;;;;;2.50;2.00;;;;;;;;;;4918527;29;20461;-81
2023/03/16 11:03:27;;;;;;;3.10;2.20;;;;;;;;;;4918265;29;20431;-82
2023/03/16 11:05:57;;;;;;;2.97;1.83;;;;;;;;;;4918658;29;20426;-82
2023/03/16 11:08:26;;;;;;;1.70;1.53;;;;;;;;;;4918148;29;20410;-81
2023/03/16 11:11:01;;;;;;;3.73;2.80;;;;;;;;;;4901218;29;20465;-81
2023/03/16 11:13:37;;;;;;;2.77;2.30;;;;;;;;;;4918426;29;20903;-81
2023/03/16 11:16:20;;;;;;;2.90;1.70;;;;;;;;;;4919087;29;20457;-82
2023/03/16 11:18:57;;;;;;;3.53;1.90;;;;;;;;;;4917844;29;20614;-81
2023/03/16 11:21:30;;;;;;;3.73;2.03;;;;;;;;;;4918562;29;20452;-80
2023/03/16 11:23:58;;;;;;;2.83;2.00;;;;;;;;;;4901502;29;20418;-81
2023/03/16 11:26:28;;;;;;;2.10;1.90;;;;;;;;;;4901549;29;20969;-80
2023/03/16 11:29:14;;;;;;;2.00;1.83;;;;;;;;;;4901251;29;20539;-80
2023/03/16 11:31:44;;;;;;;3.30;1.80;;;;;;;;;;4901115;29;20444;-81
2023/03/16 11:34:16;;;;;;;5.70;1.93;;;;;;;;;;4901235;29;20513;-81
2023/03/16 11:37:02;;;;;;;2.00;1.50;;;;;;;;;;4917796;29;20458;-81
2023/03/16 11:39:30;;;;;;;3.03;1.83;;;;;;;;;;4917808;29;20418;-80
2023/03/16 11:42:08;;;;;;;2.50;1.60;;;;;;;;;;4917998;29;20408;-81
2023/03/16 11:44:38;;;;;;;3.57;2.10;;;;;;;;;;4901587;29;20943;-82
2023/03/16 11:47:22;;;;;;;4.97;1.83;;;;;;;;;;4921867;29;20521;-81
2023/03/16 11:49:58;;;;;;;4.90;2.00;;;;;;;;;;4904110;29;20542;-81
2023/03/16 11:52:27;;;;;;;2.93;1.90;;;;;;;;;;4921075;29;20422;-81
2023/03/16 11:55:11;;;;;;;1.50;1.40;;;;;;;;;;4921175;29;20414;-81
2023/03/16 11:57:56;;;;;;;2.40;2.07;;;;;;;;;;4921507;29;20421;-80
2023/03/16 12:00:43;;;;;;;4.17;1.97;;;;;;;;;;4921393;29;20473;-81
2023/03/16 12:03:29;;;;;;;2.60;1.53;;;;;;;;;;4904255;29;20430;-81
2023/03/16 12:06:19;;;;;;;3.50;1.90;;;;;;;;;;4920711;29;20930;-81
2023/03/16 12:09:05;;;;;;;2.67;1.80;;;;;;;;;;4920288;29;20418;-81
2023/03/16 12:11:35;;;;;;;2.60;1.53;;;;;;;;;;4904122;29;20576;-81
2023/03/16 12:14:15;;;;;;;1.83;1.20;;;;;;;;;;4921276;29;20470;-79
2023/03/16 12:16:45;;;;;;;2.00;1.40;;;;;;;;;;4903611;29;20461;-80
2023/03/16 12:19:32;;;;;;;4.73;1.93;;;;;;;;;;4904301;29;20506;-80
2023/03/16 12:22:05;;;;;;;3.03;1.50;;;;;;;;;;4903879;29;20766;-80
2023/03/16 12:24:35;;;;;;;2.03;1.33;;;;;;;;;;4904161;29;20747;-80
2023/03/16 12:27:02;;;;;;;2.60;1.70;;;;;;;;;;4921060;29;20411;-80
2023/03/16 12:29:28;;;;;;;1.63;1.40;;;;;;;;;;4903823;29;20825;-81
2023/03/16 12:31:56;;;;;;;1.50;1.20;;;;;;;;;;4920550;29;20397;-80
2023/03/16 12:34:32;;;;;;;2.37;1.40;;;;;;;;;;4920797;29;20445;-81
2023/03/16 12:37:09;;;;;;;1.80;1.33;;;;;;;;;;4899940;29;20517;-81
2023/03/16 12:39:36;;;;;;;1.50;1.10;;;;;;;;;;4901860;29;20438;-80
2023/03/16 12:42:20;;;;;;;3.50;1.70;;;;;;;;;;4901695;29;20419;-81
2023/03/16 12:44:56;;;;;;;2.00;1.50;;;;;;;;;;4901407;29;20919;-81
2023/03/16 12:47:30;;;;;;;3.03;1.20;;;;;;;;;;4901930;29;20402;-80
2023/03/16 12:50:03;;;;;;;1.20;1.10;;;;;;;;;;4901288;29;20522;-80
2023/03/16 12:52:38;;;;;;;5.23;1.03;;;;;;;;;;4901578;29;20777;-81
2023/03/16 12:55:13;;;;;;;1.70;1.07;;;;;;;;;;4901426;29;20418;-80
2023/03/16 12:57:41;;;;;;;1.10;0.93;;;;;;;;;;4900967;29;20407;-81
2023/03/16 13:00:08;;;;;;;2.00;1.37;;;;;;;;;;4900195;29;20434;-81
2023/03/16 13:02:35;;;;;;;4.77;1.10;;;;;;;;;;4901212;29;20415;-80
2023/03/16 13:05:12;;;;;;;2.07;1.47;;;;;;;;;;4884400;29;20760;-81
2023/03/16 13:07:46;;;;;;;2.10;0.90;;;;;;;;;;4900728;29;20943;-82
2023/03/16 13:10:13;;;;;;;1.77;1.30;;;;;;;;;;4900536;29;21006;-81
2023/03/16 13:12:42;;;;;;;2.20;1.37;;;;;;;;;;4900530;29;20521;-82
2023/03/16 13:15:16;;;;;;;1.37;1.27;;;;;;;;;;4900995;29;20403;-81
2023/03/16 13:17:42;;;;;;;2.90;1.07;;;;;;;;;;4900733;29;20810;-81
2023/03/16 13:20:27;;;;;;;1.93;1.20;;;;;;;;;;4900633;29;20718;-81
2023/03/16 13:23:12;;;;;;;3.50;1.60;;;;;;;;;;4900272;29;20403;-80
2023/03/16 13:25:41;;;;;;;4.90;1.50;;;;;;;;;;4900445;29;20406;-81
2023/03/16 13:28:11;;;;;;;6.20;1.70;;;;;;;;;;4899603;29;20438;-81
2023/03/16 13:30:37;;;;;;;5.10;1.73;;;;;;;;;;4900806;29;20531;-81
2023/03/16 13:33:20;;;;;;;3.03;2.10;;;;;;;;;;4899148;29;20743;-79
2023/03/16 13:35:51;;;;;;;3.00;1.63;;;;;;;;;;4898789;29;20543;-80
2023/03/16 13:38:18;;;;;;;3.83;1.83;;;;;;;;;;4900329;29;20424;-81
2023/03/16 13:40:51;;;;;;;1.53;0.93;;;;;;;;;;4898855;29;20427;-81
2023/03/16 13:43:19;;;;;;;1.77;1.10;;;;;;;;;;4898930;29;20429;-81
2023/03/16 13:45:45;;;;;;;1.93;1.10;;;;;;;;;;4899773;29;20390;-80
2023/03/16 13:48:16;;;;;;;3.07;1.50;;;;;;;;;;4899039;29;20471;-80
2023/03/16 13:50:43;;;;;;;2.77;1.17;;;;;;;;;;4900283;29;20823;-81
2023/03/16 13:53:15;;;;;;;4.57;1.60;;;;;;;;;;4899881;29;20502;-81
2023/03/16 13:55:44;;;;;;;2.07;0.97;;;;;;;;;;4899402;29;20411;-85
2023/03/16 13:58:20;;;;;;;1.37;0.97;;;;;;;;;;4899902;29;20483;-81
2023/03/16 14:00:46;;;;;;;3.20;1.10;;;;;;;;;;4899748;29;20389;-81
2023/03/16 14:03:17;;;;;;;2.13;1.00;;;;;;;;;;4898516;29;20419;-81
2023/03/16 14:05:43;;;;;;;6.20;1.30;;;;;;;;;;4899751;29;20412;-81
2023/03/16 14:08:20;;;;;;;2.67;0.90;;;;;;;;;;4897997;29;20406;-81
2023/03/16 14:10:46;;;;;;;3.53;1.20;;;;;;;;;;4898325;29;20820;-81
2023/03/16 14:13:22;;;;;;;3.93;1.20;;;;;;;;;;4898617;29;20862;-80
2023/03/16 14:15:49;;;;;;;2.30;0.80;;;;;;;;;;4898257;29;20401;-81
2023/03/16 14:18:20;;;;;;;1.37;0.90;;;;;;;;;;4898458;29;20406;-81
2023/03/16 14:20:46;;;;;;;1.40;0.90;;;;;;;;;;4897930;29;20405;-80
2023/03/16 14:23:32;;;;;;;1.00;0.80;;;;;;;;;;4898363;29;20420;-81
2023/03/16 14:25:58;;;;;;;3.40;1.50;;;;;;;;;;4899064;29;20378;-81
2023/03/16 14:28:30;;;;;;;1.43;1.33;;;;;;;;;;4899055;29;20415;-80
2023/03/16 14:31:09;;;;;;;1.63;0.90;;;;;;;;;;4897649;29;20466;-81
2023/03/16 14:33:36;;;;;;;1.70;1.03;;;;;;;;;;4899293;29;20403;-80
2023/03/16 14:36:13;;;;;;;1.30;0.80;;;;;;;;;;4905803;29;20868;-81
2023/03/16 14:38:40;;;;;;;2.10;0.90;;;;;;;;;;4917545;29;20392;-81
2023/03/16 14:41:08;;;;;;;2.20;1.37;;;;;;;;;;4917676;29;20844;-80
2023/03/16 14:43:37;;;;;;;3.80;1.10;;;;;;;;;;4918076;29;20418;-80
2023/03/16 14:46:04;;;;;;;1.37;0.90;;;;;;;;;;4917707;29;20417;-81
2023/03/16 14:48:31;;;;;;;2.80;1.20;;;;;;;;;;4917593;29;20415;-80
2023/03/16 14:50:59;;;;;;;3.00;1.10;;;;;;;;;;4900491;29;21036;-80
2023/03/16 14:53:27;;;;;;;2.80;1.20;;;;;;;;;;4917497;29;20389;-80